createdAt,value
2018-11-03T00:00:26.728Z,4.94
2018-11-03T00:04:30.640Z,4.91
2018-11-03T00:08:34.494Z,4.87
2018-11-03T00:12:53.287Z,4.83
2018-11-03T00:16:57.119Z,4.81
2018-11-03T00:21:01.053Z,4.75
2018-11-03T00:25:06.216Z,4.69
2018-11-03T00:29:10.086Z,4.70
2018-11-03T00:33:14.012Z,4.66
2018-11-03T00:37:18.321Z,4.64
2018-11-03T00:41:22.264Z,4.61
2018-11-03T00:45:26.118Z,4.60
2018-11-03T00:49:30.008Z,4.58
2018-11-03T00:53:33.920Z,4.52
2018-11-03T00:57:38.412Z,4.46
2018-11-03T01:01:42.291Z,4.42
2018-11-03T01:05:46.220Z,4.40
2018-11-03T01:09:50.373Z,4.37
2018-11-03T01:13:54.727Z,4.33
2018-11-03T01:17:59.013Z,4.28
2018-11-03T01:22:03.273Z,4.25
2018-11-03T01:26:07.577Z,4.22
2018-11-03T01:30:14.432Z,4.19
2018-11-03T01:34:18.895Z,4.14
2018-11-03T01:38:23.176Z,4.10
2018-11-03T01:42:27.860Z,4.01
2018-11-03T01:46:32.117Z,4.01
2018-11-03T01:50:36.561Z,3.94
2018-11-03T01:54:40.733Z,3.93
2018-11-03T01:58:45.044Z,3.88
2018-11-03T02:02:49.373Z,3.86
2018-11-03T02:06:53.706Z,3.84
2018-11-03T02:10:57.996Z,3.80
2018-11-03T02:15:02.249Z,3.76
2018-11-03T02:19:06.440Z,3.74
2018-11-03T02:23:12.240Z,3.68
2018-11-03T02:27:16.322Z,3.65
2018-11-03T02:31:21.154Z,3.61
2018-11-03T02:35:25.710Z,3.57
2018-11-03T02:39:31.371Z,3.53
2018-11-03T02:43:36.294Z,3.49
2018-11-03T02:47:42.225Z,3.45
2018-11-03T02:51:46.683Z,3.42
2018-11-03T02:55:50.776Z,3.38
2018-11-03T02:59:55.094Z,3.35
2018-11-03T03:03:59.181Z,3.27
2018-11-03T03:08:03.333Z,3.27
2018-11-03T03:12:07.427Z,3.26
2018-11-03T03:16:11.584Z,3.21
2018-11-03T03:20:15.804Z,3.23
2018-11-03T03:24:20.310Z,3.19
2018-11-03T03:28:24.370Z,3.17
2018-11-03T03:32:28.718Z,3.14
2018-11-03T03:36:32.925Z,3.14
2018-11-03T03:40:37.304Z,3.15
2018-11-03T03:44:41.559Z,3.13
2018-11-03T03:48:45.879Z,3.12
2018-11-03T03:52:49.880Z,3.09
2018-11-03T03:56:54.114Z,3.08
2018-11-03T04:00:58.199Z,3.03
2018-11-03T04:05:03.175Z,3.00
2018-11-03T04:09:08.217Z,2.96
2018-11-03T04:13:12.336Z,2.92
2018-11-03T04:17:16.289Z,2.92
2018-11-03T04:21:28.785Z,2.87
2018-11-03T04:25:32.880Z,2.87
2018-11-03T04:29:37.124Z,2.86
2018-11-03T04:33:41.214Z,2.85
2018-11-03T04:37:45.985Z,2.82
2018-11-03T04:41:50.072Z,2.83
2018-11-03T04:45:54.692Z,2.81
2018-11-03T04:49:59.488Z,2.81
2018-11-03T04:54:03.856Z,2.75
2018-11-03T04:58:08.002Z,2.73
2018-11-03T05:02:13.232Z,2.73
2018-11-03T05:06:17.190Z,2.73
2018-11-03T05:10:21.286Z,2.71
2018-11-03T05:14:25.332Z,2.70
2018-11-03T05:18:29.737Z,2.68
2018-11-03T05:22:34.820Z,2.62
2018-11-03T05:26:39.371Z,2.62
2018-11-03T05:30:43.661Z,2.61
2018-11-03T05:34:48.172Z,2.58
2018-11-03T05:38:52.475Z,2.53
2018-11-03T05:42:56.619Z,2.52
2018-11-03T05:47:00.696Z,2.46
2018-11-03T05:51:05.106Z,2.42
2018-11-03T05:55:10.853Z,2.36
2018-11-03T05:59:15.213Z,2.33
2018-11-03T06:03:20.215Z,2.31
2018-11-03T06:07:24.653Z,2.27
2018-11-03T06:11:29.023Z,2.27
2018-11-03T06:15:33.320Z,2.31
2018-11-03T06:19:37.089Z,2.24
2018-11-03T06:23:41.391Z,2.21
2018-11-03T06:27:45.244Z,2.27
2018-11-03T06:31:49.944Z,2.31
2018-11-03T06:35:54.000Z,2.31
2018-11-03T06:39:58.321Z,2.32
2018-11-03T06:44:02.345Z,2.34
2018-11-03T06:48:06.999Z,2.42
2018-11-03T06:52:11.088Z,2.42
2018-11-03T06:56:15.314Z,2.48
2018-11-03T07:00:19.420Z,2.61
2018-11-03T07:04:23.756Z,2.65
2018-11-03T07:08:28.462Z,2.76
2018-11-03T07:12:33.641Z,2.78
2018-11-03T07:16:37.571Z,2.83
2018-11-03T07:20:41.590Z,2.90
2018-11-03T07:24:45.655Z,2.96
2018-11-03T07:28:49.655Z,3.05
2018-11-03T07:32:54.494Z,3.18
2018-11-03T07:36:58.455Z,3.16
2018-11-03T07:41:02.584Z,3.31
2018-11-03T07:45:08.071Z,3.52
2018-11-03T07:49:16.096Z,3.69
2018-11-03T07:53:20.376Z,3.80
2018-11-03T07:57:24.428Z,3.91
2018-11-03T08:01:28.643Z,3.98
2018-11-03T08:05:32.944Z,4.02
2018-11-03T08:09:36.980Z,4.14
2018-11-03T08:13:41.449Z,4.25
2018-11-03T08:17:46.231Z,4.27
2018-11-03T08:21:50.703Z,4.43
2018-11-03T08:25:55.411Z,4.63
2018-11-03T08:29:59.682Z,4.89
2018-11-03T08:34:03.770Z,5.05
2018-11-03T08:38:08.126Z,5.15
2018-11-03T08:42:12.373Z,5.37
2018-11-03T08:46:17.710Z,5.63
2018-11-03T08:50:22.486Z,5.80
2018-11-03T08:54:26.444Z,6.03
2018-11-03T08:58:31.423Z,5.97
2018-11-03T09:02:35.627Z,6.25
2018-11-03T09:06:39.691Z,6.54
2018-11-03T09:10:44.391Z,6.76
2018-11-03T09:14:48.484Z,7.27
2018-11-03T09:18:52.863Z,7.38
2018-11-03T09:22:56.831Z,7.60
2018-11-03T09:27:01.070Z,7.65
2018-11-03T09:31:05.282Z,8.11
2018-11-03T09:35:10.825Z,9.07
2018-11-03T09:39:15.015Z,9.37
2018-11-03T09:43:19.023Z,10.20
2018-11-03T09:47:22.978Z,11.04
2018-11-03T09:51:28.349Z,11.92
2018-11-03T09:55:32.508Z,11.90
2018-11-03T09:59:36.605Z,12.49
2018-11-03T10:03:40.855Z,13.22
2018-11-03T10:07:45.614Z,14.10
2018-11-03T10:11:49.582Z,14.39
2018-11-03T10:15:53.714Z,14.37
2018-11-03T10:19:58.050Z,15.01
2018-11-03T10:24:02.257Z,14.84
2018-11-03T10:28:06.990Z,14.72
2018-11-03T10:32:10.888Z,14.94
2018-11-03T10:36:15.089Z,14.47
2018-11-03T10:40:19.183Z,14.99
2018-11-03T10:44:23.183Z,15.31
2018-11-03T10:48:27.150Z,16.12
2018-11-03T10:52:31.056Z,15.80
2018-11-03T10:56:35.056Z,16.10
2018-11-03T11:00:45.143Z,16.43
2018-11-03T11:04:54.726Z,16.43
2018-11-03T11:09:03.875Z,16.96
2018-11-03T11:13:10.329Z,17.70
2018-11-03T11:17:14.803Z,18.11
2018-11-03T11:21:18.772Z,18.11
2018-11-03T11:25:22.702Z,18.43
2018-11-03T11:29:26.969Z,18.58
2018-11-03T11:33:31.441Z,19.13
2018-11-03T11:37:36.031Z,19.07
2018-11-03T11:41:39.871Z,18.91
2018-11-03T11:45:43.994Z,19.07
2018-11-03T11:49:48.211Z,18.71
2018-11-03T11:53:53.081Z,18.58
2018-11-03T11:57:56.944Z,18.53
2018-11-03T12:02:01.279Z,18.77
2018-11-03T12:06:05.376Z,19.10
2018-11-03T12:10:09.515Z,19.46
2018-11-03T12:14:13.245Z,19.53
2018-11-03T12:18:17.459Z,19.23
2018-11-03T12:22:21.447Z,19.65
2018-11-03T12:26:25.424Z,20.10
2018-11-03T12:30:29.280Z,20.41
2018-11-03T12:34:33.134Z,20.62
2018-11-03T12:38:36.999Z,19.10
2018-11-03T12:42:40.915Z,20.16
2018-11-03T12:46:44.836Z,20.31
2018-11-03T12:50:48.706Z,20.25
2018-11-03T12:54:52.571Z,19.73
2018-11-03T12:58:57.364Z,20.18
2018-11-03T13:03:01.914Z,20.44
2018-11-03T13:07:06.037Z,19.27
2018-11-03T13:11:10.327Z,18.17
2018-11-03T13:15:14.498Z,17.36
2018-11-03T13:19:18.449Z,17.38
2018-11-03T13:23:22.351Z,17.05
2018-11-03T13:27:26.575Z,15.93
2018-11-03T13:31:30.437Z,15.17
2018-11-03T13:35:35.239Z,15.33
2018-11-03T13:39:40.189Z,14.91
2018-11-03T13:43:44.009Z,14.98
2018-11-03T13:47:48.733Z,14.83
2018-11-03T13:51:52.549Z,14.37
2018-11-03T13:55:56.666Z,14.44
2018-11-03T14:00:00.593Z,14.36
2018-11-03T14:04:06.288Z,14.03
2018-11-03T14:08:10.188Z,13.59
2018-11-03T14:12:14.425Z,13.39
2018-11-03T14:16:20.590Z,13.46
2018-11-03T14:20:25.411Z,13.49
2018-11-03T14:24:44.188Z,13.37
2018-11-03T14:28:48.159Z,13.28
2018-11-03T14:32:52.644Z,13.17
2018-11-03T14:36:56.793Z,12.85
2018-11-03T14:41:00.681Z,12.46
2018-11-03T14:45:06.283Z,12.28
2018-11-03T14:49:10.249Z,11.93
2018-11-03T14:53:14.153Z,11.83
2018-11-03T14:57:18.968Z,11.66
2018-11-03T15:01:23.088Z,11.60
2018-11-03T15:05:27.524Z,11.44
2018-11-03T15:09:32.213Z,11.26
2018-11-03T15:13:36.161Z,11.22
2018-11-03T15:17:40.200Z,11.18
2018-11-03T15:21:44.093Z,11.17
2018-11-03T15:25:48.259Z,11.04
2018-11-03T15:29:52.168Z,10.91
2018-11-03T15:33:56.065Z,10.83
2018-11-03T15:37:59.944Z,10.79
2018-11-03T15:42:05.315Z,10.74
2018-11-03T15:46:09.728Z,10.66
2018-11-03T15:50:14.873Z,10.56
2018-11-03T15:54:18.944Z,10.52
2018-11-03T15:58:23.159Z,10.39
2018-11-03T16:02:27.030Z,10.28
2018-11-03T16:06:30.905Z,10.20
2018-11-03T16:10:34.829Z,10.15
2018-11-03T16:14:39.044Z,10.05
2018-11-03T16:18:42.962Z,9.97
2018-11-03T16:22:47.778Z,9.85
2018-11-03T16:26:51.712Z,9.68
2018-11-03T16:30:55.616Z,9.57
2018-11-03T16:35:00.106Z,9.43
2018-11-03T16:39:07.096Z,9.33
2018-11-03T16:43:10.983Z,9.26
2018-11-03T16:47:15.139Z,9.13
2018-11-03T16:51:19.104Z,9.05
2018-11-03T16:55:23.063Z,9.04
2018-11-03T16:59:27.018Z,8.94
2018-11-03T17:03:31.550Z,8.86
2018-11-03T17:07:37.194Z,8.81
2018-11-03T17:11:41.041Z,8.74
2018-11-03T17:15:44.961Z,8.64
2018-11-03T17:19:48.894Z,8.62
2018-11-03T17:23:53.076Z,8.58
2018-11-03T17:27:57.026Z,8.49
2018-11-03T17:32:00.929Z,8.47
2018-11-03T17:36:04.952Z,8.40
2018-11-03T17:40:09.768Z,8.30
2018-11-03T17:44:14.089Z,8.14
2018-11-03T17:48:17.885Z,8.13
2018-11-03T17:52:22.168Z,8.09
2018-11-03T17:56:26.019Z,8.07
2018-11-03T18:00:30.338Z,7.98
2018-11-03T18:04:34.104Z,7.88
2018-11-03T18:08:38.176Z,7.76
2018-11-03T18:12:42.924Z,7.70
2018-11-03T18:16:46.836Z,7.69
2018-11-03T18:20:50.692Z,7.63
2018-11-03T18:24:54.597Z,7.60
2018-11-03T18:28:58.512Z,7.54
2018-11-03T18:33:02.524Z,7.51
2018-11-03T18:37:06.672Z,7.44
2018-11-03T18:41:12.802Z,7.38
2018-11-03T18:45:16.616Z,7.35
2018-11-03T18:49:20.479Z,7.28
2018-11-03T18:53:24.319Z,7.24
2018-11-03T18:57:29.031Z,7.19
2018-11-03T19:01:32.910Z,7.14
2018-11-03T19:05:36.802Z,7.05
2018-11-03T19:09:40.763Z,6.93
2018-11-03T19:13:44.940Z,6.88
2018-11-03T19:17:48.932Z,6.78
2018-11-03T19:21:52.795Z,6.67
2018-11-03T19:25:56.712Z,6.64
2018-11-03T19:30:01.082Z,6.58
2018-11-03T19:34:05.379Z,6.56
2018-11-03T19:38:09.563Z,6.52
2018-11-03T19:42:13.482Z,6.48
2018-11-03T19:46:17.372Z,6.43
2018-11-03T19:50:21.513Z,6.39
2018-11-03T19:54:25.484Z,6.34
2018-11-03T19:58:30.200Z,6.28
2018-11-03T20:02:34.180Z,6.25
2018-11-03T20:06:38.140Z,6.23
2018-11-03T20:10:42.045Z,6.21
2018-11-03T20:14:45.927Z,6.16
2018-11-03T20:18:49.791Z,6.10
2018-11-03T20:22:53.706Z,6.08
2018-11-03T20:26:58.597Z,6.03
2018-11-03T20:31:02.496Z,6.01
2018-11-03T20:35:07.061Z,5.93
2018-11-03T20:39:11.815Z,5.88
2018-11-03T20:43:17.004Z,5.82
2018-11-03T20:47:20.920Z,5.79
2018-11-03T20:51:24.841Z,5.75
2018-11-03T20:55:28.968Z,5.74
2018-11-03T20:59:32.839Z,5.71
2018-11-03T21:03:37.226Z,5.68
2018-11-03T21:07:41.964Z,5.65
2018-11-03T21:11:45.925Z,5.62
2018-11-03T21:15:49.809Z,5.58
2018-11-03T21:19:54.000Z,5.52
2018-11-03T21:23:58.505Z,5.44
2018-11-03T21:28:02.792Z,5.38
2018-11-03T21:32:07.312Z,5.32
2018-11-03T21:36:12.033Z,5.27
2018-11-03T21:40:15.915Z,5.21
2018-11-03T21:44:19.912Z,5.15
2018-11-03T21:48:23.835Z,5.10
2018-11-03T21:52:27.717Z,5.07
2018-11-03T21:56:31.629Z,5.03
2018-11-03T22:00:35.484Z,5.02
2018-11-03T22:04:39.452Z,5.00
2018-11-03T22:08:43.756Z,4.93
2018-11-03T22:12:47.623Z,4.89
2018-11-03T22:16:51.557Z,4.83
2018-11-03T22:20:56.082Z,4.82
2018-11-03T22:25:00.022Z,4.77
2018-11-03T22:29:05.183Z,4.78
2018-11-03T22:33:09.048Z,4.77
2018-11-03T22:37:12.937Z,4.75
2018-11-03T22:41:16.868Z,4.69
2018-11-03T22:45:20.783Z,4.65
2018-11-03T22:49:25.488Z,4.66
2018-11-03T22:53:30.389Z,4.62
2018-11-03T22:57:34.247Z,4.55
2018-11-03T23:01:38.410Z,4.50
2018-11-03T23:05:42.293Z,4.50
2018-11-03T23:09:46.571Z,4.47
2018-11-03T23:13:50.476Z,4.42
2018-11-03T23:17:54.467Z,4.36
2018-11-03T23:21:58.509Z,4.34
2018-11-03T23:26:02.596Z,4.31
2018-11-03T23:30:09.248Z,4.28
2018-11-03T23:34:12.888Z,4.23
2018-11-03T23:38:16.831Z,4.22
2018-11-03T23:42:21.016Z,4.20
2018-11-03T23:46:24.935Z,4.17
2018-11-03T23:50:29.167Z,4.13
2018-11-03T23:54:33.085Z,4.11
2018-11-03T23:58:36.968Z,4.15
